Time;durP1;ratioP1;P1;durP2;ratioP2;P2;SDS_P1;SDS_P2;PMS_P1;PMS_P2;Temp;Humidity;BMP_temperature;BMP_pressure;BME280_temperature;BME280_humidity;BME280_pressure;Samples;Min_cycle;Max_cycle;Signal;HPM_P1;HPM_P2
2023/05/23 00:00:53;;;;;;;9.52;7.00;;;15.60;99.90;;;;;;4978576;28;20113;-87
2023/05/23 00:03:21;;;;;;;9.55;6.78;;;15.60;99.90;;;;;;4984108;28;20054;-87
2023/05/23 00:05:47;;;;;;;9.15;7.15;;;15.70;99.90;;;;;;4982015;28;20057;-87
2023/05/23 00:08:13;;;;;;;12.73;7.40;;;15.60;99.90;;;;;;4983621;28;20053;-87
2023/05/23 00:10:38;;;;;;;11.93;7.32;;;15.70;99.90;;;;;;4981015;28;20125;-87
2023/05/23 00:13:04;;;;;;;10.70;6.85;;;15.60;99.90;;;;;;4971797;28;20026;-87
2023/05/23 00:15:30;;;;;;;10.20;7.10;;;15.60;99.90;;;;;;4965824;28;20464;-88
2023/05/23 00:17:55;;;;;;;9.60;6.55;;;15.60;99.90;;;;;;4972611;28;20037;-87
2023/05/23 00:20:21;;;;;;;14.65;7.95;;;15.50;99.90;;;;;;4978244;28;20033;-87
2023/05/23 00:22:48;;;;;;;11.35;8.10;;;15.60;99.90;;;;;;4992976;28;20029;-87
2023/05/23 00:25:13;;;;;;;14.73;7.95;;;15.50;99.90;;;;;;4986903;28;20028;-87
2023/05/23 00:27:39;;;;;;;12.00;7.47;;;15.50;99.90;;;;;;4973843;28;20027;-88
2023/05/23 00:30:05;;;;;;;11.93;7.72;;;15.50;99.90;;;;;;4972376;28;20098;-87
2023/05/23 00:32:30;;;;;;;10.98;7.10;;;15.50;99.90;;;;;;4987640;28;20018;-88
2023/05/23 00:34:56;;;;;;;10.85;5.82;;;15.50;99.90;;;;;;4980360;28;20108;-87
2023/05/23 00:37:21;;;;;;;10.15;5.88;;;15.40;99.90;;;;;;4978158;28;20075;-85
2023/05/23 00:39:47;;;;;;;10.00;5.28;;;15.40;99.90;;;;;;4962848;28;20158;-86
2023/05/23 00:42:14;;;;;;;14.45;6.95;;;15.40;99.90;;;;;;4964388;28;20515;-85
2023/05/23 00:44:39;;;;;;;8.88;5.80;;;15.30;99.90;;;;;;4986914;28;20036;-87
2023/05/23 00:47:06;;;;;;;9.65;5.63;;;15.30;99.90;;;;;;4976603;28;20030;-88
2023/05/23 00:49:32;;;;;;;12.35;6.07;;;15.30;99.90;;;;;;4994844;28;20022;-87
2023/05/23 00:51:58;;;;;;;7.72;5.68;;;15.30;99.90;;;;;;4986079;28;20033;-87
2023/05/23 00:54:28;;;;;;;9.70;5.85;;;15.30;99.90;;;;;;4995608;28;20038;-87
2023/05/23 00:56:53;;;;;;;14.77;6.55;;;15.20;99.90;;;;;;4995577;28;20037;-87
2023/05/23 00:59:21;;;;;;;11.88;6.97;;;15.20;99.90;;;;;;4995364;28;20022;-87
2023/05/23 01:01:49;;;;;;;12.98;6.18;;;15.20;99.90;;;;;;4976675;28;20026;-87
2023/05/23 01:04:15;;;;;;;10.73;7.15;;;15.20;99.90;;;;;;4975831;28;20022;-87
2023/05/23 01:06:45;;;;;;;11.93;7.50;;;15.20;99.90;;;;;;4968590;28;20475;-87
2023/05/23 01:09:12;;;;;;;13.57;7.03;;;15.10;99.90;;;;;;4993403;28;20022;-87
2023/05/23 01:12:07;;;;;;;18.17;8.43;;;15.20;99.90;;;;;;4957024;28;20471;-87
2023/05/23 01:15:02;;;;;;;19.20;7.30;;;15.10;99.90;;;;;;4975353;28;20037;-87
2023/05/23 01:17:49;;;;;;;14.70;6.07;;;15.00;99.90;;;;;;4977902;28;20023;-87
2023/05/23 01:20:25;;;;;;;10.32;5.45;;;15.00;99.90;;;;;;4993177;28;20481;-87
2023/05/23 01:23:01;;;;;;;13.10;6.68;;;14.90;99.90;;;;;;4979280;28;20018;-87
2023/05/23 01:26:15;;;;;;;15.75;7.25;;;14.90;99.90;;;;;;4975899;28;20393;-87
2023/05/23 01:28:45;;;;;;;13.32;8.13;;;14.90;99.90;;;;;;4933495;29;20036;-87
2023/05/23 01:31:12;;;;;;;15.80;7.05;;;14.80;99.90;;;;;;4932532;29;20022;-87
2023/05/23 01:33:39;;;;;;;13.60;6.60;;;14.80;99.90;;;;;;4959866;28;20042;-87
2023/05/23 01:36:06;;;;;;;14.60;7.88;;;14.80;99.90;;;;;;4979015;28;20038;-87
2023/05/23 01:38:31;;;;;;;16.73;7.90;;;14.80;99.90;;;;;;4986466;28;20033;-88
2023/05/23 01:40:57;;;;;;;12.68;7.35;;;14.70;99.90;;;;;;4983033;28;20034;-87
2023/05/23 01:43:24;;;;;;;20.98;8.75;;;14.70;99.90;;;;;;5010867;28;20022;-87
2023/05/23 01:45:52;;;;;;;16.23;8.93;;;14.60;99.90;;;;;;4981889;28;20482;-87
2023/05/23 01:48:19;;;;;;;16.70;7.65;;;14.60;99.90;;;;;;4985741;28;20470;-87
2023/05/23 01:50:45;;;;;;;13.40;7.22;;;14.50;99.90;;;;;;4983214;28;20025;-86
2023/05/23 01:53:12;;;;;;;14.27;6.68;;;14.50;99.90;;;;;;4975495;28;20034;-87
2023/05/23 01:55:40;;;;;;;13.15;7.28;;;14.50;99.90;;;;;;4992069;28;20049;-87
2023/05/23 01:58:05;;;;;;;13.50;8.13;;;14.40;99.90;;;;;;4982832;28;20029;-88
2023/05/23 02:00:31;;;;;;;12.05;7.32;;;14.40;99.90;;;;;;4994456;28;20026;-87
2023/05/23 02:02:57;;;;;;;10.13;6.68;;;14.40;99.90;;;;;;4998988;28;20065;-87
2023/05/23 02:05:22;;;;;;;11.57;6.47;;;14.40;99.90;;;;;;4988155;28;20019;-87
2023/05/23 02:07:48;;;;;;;12.05;6.93;;;14.40;99.90;;;;;;4989469;28;20063;-87
2023/05/23 02:10:13;;;;;;;12.27;6.32;;;14.40;99.90;;;;;;5000477;28;20029;-88
2023/05/23 02:12:39;;;;;;;10.95;5.88;;;14.40;99.90;;;;;;4977247;28;20029;-87
2023/05/23 02:15:06;;;;;;;10.68;6.95;;;14.40;99.90;;;;;;4989830;28;20044;-87
2023/05/23 02:17:32;;;;;;;10.15;5.82;;;14.30;99.90;;;;;;5002845;28;20021;-87
2023/05/23 02:19:57;;;;;;;12.48;6.90;;;14.30;99.90;;;;;;4993692;28;20120;-87
2023/05/23 02:22:24;;;;;;;10.23;6.13;;;14.30;99.90;;;;;;4989622;28;20029;-87
2023/05/23 02:24:49;;;;;;;14.45;7.25;;;14.30;99.90;;;;;;4995509;28;20091;-87
2023/05/23 02:27:15;;;;;;;11.20;6.38;;;14.30;99.90;;;;;;4987482;28;20030;-86
2023/05/23 02:29:40;;;;;;;12.40;6.82;;;14.30;99.90;;;;;;4985103;28;20483;-87
2023/05/23 02:32:06;;;;;;;11.15;5.75;;;14.30;99.90;;;;;;4970018;28;20475;-86
2023/05/23 02:34:31;;;;;;;13.95;6.43;;;14.30;99.90;;;;;;4993877;28;20042;-86
2023/05/23 02:36:57;;;;;;;11.48;6.75;;;14.30;99.90;;;;;;4983462;28;20025;-87
2023/05/23 02:39:22;;;;;;;11.90;6.38;;;14.30;99.90;;;;;;4981361;28;20026;-86
2023/05/23 02:41:48;;;;;;;13.45;7.05;;;14.30;99.90;;;;;;4980138;28;20033;-87
2023/05/23 02:44:13;;;;;;;10.05;6.40;;;14.30;99.90;;;;;;4968258;28;20019;-86
2023/05/23 02:46:39;;;;;;;11.80;6.50;;;14.30;99.90;;;;;;4983116;28;20080;-86
2023/05/23 02:49:05;;;;;;;13.50;7.43;;;14.30;99.90;;;;;;4991714;28;20023;-87
2023/05/23 02:51:31;;;;;;;12.13;6.68;;;14.20;99.90;;;;;;4986588;28;20022;-87
2023/05/23 02:53:56;;;;;;;12.52;7.40;;;14.20;99.90;;;;;;4978134;28;20751;-86
2023/05/23 02:56:22;;;;;;;11.75;6.22;;;14.20;99.90;;;;;;4987516;28;20052;-86
2023/05/23 02:58:48;;;;;;;13.32;6.53;;;14.30;99.90;;;;;;5009243;28;20018;-87
2023/05/23 03:01:13;;;;;;;13.45;6.68;;;14.20;99.90;;;;;;4980124;28;20501;-87
2023/05/23 03:03:40;;;;;;;11.45;6.88;;;14.20;99.90;;;;;;4964470;28;20065;-87
2023/05/23 03:06:06;;;;;;;12.15;6.90;;;14.20;99.90;;;;;;4970993;28;20045;-86
2023/05/23 03:08:31;;;;;;;11.57;6.60;;;14.20;99.90;;;;;;4989626;28;20118;-87
2023/05/23 03:10:57;;;;;;;15.95;7.63;;;14.30;99.90;;;;;;4989712;28;20030;-86
2023/05/23 03:13:22;;;;;;;13.65;7.68;;;14.30;99.90;;;;;;4985605;28;20113;-87
2023/05/23 03:15:48;;;;;;;12.57;6.60;;;14.30;99.90;;;;;;4971312;28;20443;-86
2023/05/23 03:18:13;;;;;;;13.23;7.28;;;14.30;99.90;;;;;;4983115;28;20141;-87
2023/05/23 03:20:39;;;;;;;16.63;7.40;;;14.30;99.90;;;;;;4988601;28;20034;-87
2023/05/23 03:23:04;;;;;;;12.05;6.38;;;14.30;99.90;;;;;;4985159;28;20030;-86
2023/05/23 03:25:30;;;;;;;11.40;6.72;;;14.30;99.90;;;;;;4958138;28;20030;-86
2023/05/23 03:27:56;;;;;;;14.25;7.03;;;14.20;99.90;;;;;;4975036;28;20019;-87
2023/05/23 03:30:21;;;;;;;16.02;7.03;;;14.30;99.90;;;;;;4970883;28;20062;-86
2023/05/23 03:32:47;;;;;;;9.82;5.70;;;14.30;99.90;;;;;;4980034;28;20018;-86
2023/05/23 03:35:12;;;;;;;11.82;6.50;;;14.30;99.90;;;;;;4994678;28;20128;-86
2023/05/23 03:37:38;;;;;;;11.95;6.38;;;14.30;99.90;;;;;;4985228;28;20054;-87
2023/05/23 03:40:05;;;;;;;13.73;6.72;;;14.30;99.90;;;;;;4992223;28;20026;-86
2023/05/23 03:42:31;;;;;;;12.02;6.18;;;14.30;99.90;;;;;;4990203;28;20022;-86
2023/05/23 03:44:56;;;;;;;11.30;6.05;;;14.30;99.90;;;;;;4987347;28;20037;-86
2023/05/23 03:47:25;;;;;;;13.35;6.55;;;14.30;99.90;;;;;;4981859;28;20077;-86
2023/05/23 03:49:51;;;;;;;11.43;6.10;;;14.30;99.90;;;;;;4975855;28;20034;-87
2023/05/23 03:52:16;;;;;;;12.70;6.15;;;14.40;99.90;;;;;;4975751;28;20037;-87
2023/05/23 03:54:42;;;;;;;11.95;6.65;;;14.30;99.90;;;;;;4976920;28;20509;-87
2023/05/23 03:57:07;;;;;;;14.07;6.53;;;14.30;99.90;;;;;;4978116;28;20061;-87
2023/05/23 03:59:33;;;;;;;12.90;5.72;;;14.40;99.90;;;;;;4985893;28;20018;-86
2023/05/23 04:01:59;;;;;;;9.90;6.03;;;14.40;99.90;;;;;;4979078;28;20033;-86
2023/05/23 04:04:26;;;;;;;10.75;6.10;;;14.40;99.90;;;;;;4982999;28;20031;-86
2023/05/23 04:06:51;;;;;;;13.13;6.00;;;14.40;99.90;;;;;;4985506;28;20106;-86
2023/05/23 04:09:17;;;;;;;14.80;6.88;;;14.40;99.90;;;;;;4983407;28;20113;-86
2023/05/23 04:11:43;;;;;;;13.85;6.55;;;14.40;99.90;;;;;;4963103;28;20033;-87
2023/05/23 04:14:08;;;;;;;11.60;5.97;;;14.50;99.90;;;;;;4969743;28;20022;-86
2023/05/23 04:16:36;;;;;;;14.35;5.97;;;14.50;99.90;;;;;;4970562;28;20033;-87
2023/05/23 04:19:03;;;;;;;18.92;6.68;;;14.50;99.90;;;;;;4968890;28;20033;-87
2023/05/23 04:21:29;;;;;;;12.98;6.60;;;14.50;99.90;;;;;;4966244;28;20419;-87
2023/05/23 04:23:55;;;;;;;14.80;6.20;;;14.50;99.90;;;;;;5007274;28;20030;-87
2023/05/23 04:26:20;;;;;;;15.32;7.28;;;14.50;99.90;;;;;;4992965;28;20029;-87
2023/05/23 04:28:47;;;;;;;19.60;7.43;;;14.50;99.90;;;;;;5009990;28;20460;-86
2023/05/23 04:31:13;;;;;;;18.58;7.03;;;14.40;99.90;;;;;;4988342;28;20026;-87
2023/05/23 04:33:39;;;;;;;17.30;7.05;;;14.40;99.90;;;;;;4978562;28;20057;-87
2023/05/23 04:36:08;;;;;;;23.70;7.30;;;14.40;99.90;;;;;;4988742;28;20129;-87
2023/05/23 04:38:33;;;;;;;22.08;8.18;;;14.30;99.90;;;;;;4983628;28;20061;-86
2023/05/23 04:40:59;;;;;;;17.58;8.10;;;14.30;99.90;;;;;;4963334;28;20052;-86
2023/05/23 04:43:26;;;;;;;25.27;9.05;;;14.30;99.90;;;;;;4975111;28;20026;-85
2023/05/23 04:45:53;;;;;;;21.67;8.05;;;14.30;99.90;;;;;;4995530;28;20022;-86
2023/05/23 04:48:20;;;;;;;24.40;8.85;;;14.30;99.90;;;;;;4986149;28;20479;-86
2023/05/23 04:50:46;;;;;;;22.55;8.75;;;14.20;99.90;;;;;;4977440;28;20052;-86
2023/05/23 04:53:12;;;;;;;24.02;8.95;;;14.10;99.90;;;;;;4983014;28;20030;-86
2023/05/23 04:55:37;;;;;;;23.88;9.65;;;14.20;99.90;;;;;;4983522;28;20037;-86
2023/05/23 04:58:03;;;;;;;20.63;8.70;;;14.10;99.90;;;;;;4979280;28;20390;-87
2023/05/23 05:00:29;;;;;;;24.23;8.55;;;14.10;99.90;;;;;;4970335;28;20117;-86
2023/05/23 05:02:54;;;;;;;28.75;8.93;;;14.10;99.90;;;;;;4973026;28;20497;-86
2023/05/23 05:05:20;;;;;;;20.25;8.80;;;14.00;99.90;;;;;;4970942;28;20058;-86
2023/05/23 05:07:46;;;;;;;22.38;8.35;;;14.00;99.90;;;;;;4968849;28;20039;-87
2023/05/23 05:10:15;;;;;;;18.90;7.95;;;13.90;99.90;;;;;;4987983;28;20113;-86
2023/05/23 05:12:45;;;;;;;17.17;6.88;;;13.90;99.90;;;;;;4974792;28;20027;-87
2023/05/23 05:15:12;;;;;;;18.17;7.22;;;13.80;99.90;;;;;;4981088;28;20097;-86
2023/05/23 05:17:38;;;;;;;19.75;7.30;;;13.80;99.90;;;;;;4968957;28;20033;-87
2023/05/23 05:20:07;;;;;;;18.35;7.07;;;13.80;99.90;;;;;;4973579;28;20030;-85
2023/05/23 05:22:34;;;;;;;15.73;6.30;;;13.80;99.90;;;;;;4971895;28;20022;-86
2023/05/23 05:25:01;;;;;;;17.77;6.18;;;13.70;99.90;;;;;;4973260;28;20475;-87
2023/05/23 05:27:26;;;;;;;23.13;6.13;;;13.70;99.90;;;;;;4969458;28;20081;-85
2023/05/23 05:29:52;;;;;;;22.15;6.78;;;13.80;99.90;;;;;;4978342;28;20486;-86
2023/05/23 05:32:18;;;;;;;19.88;6.45;;;13.80;99.90;;;;;;4963331;28;20030;-86
2023/05/23 05:34:43;;;;;;;19.95;6.80;;;13.70;99.90;;;;;;4983468;28;20178;-87
2023/05/23 05:37:13;;;;;;;17.35;6.20;;;13.70;99.90;;;;;;4992060;28;20052;-86
2023/05/23 05:39:38;;;;;;;15.88;4.97;;;13.60;99.90;;;;;;4998900;28;20116;-86
2023/05/23 05:42:04;;;;;;;18.85;4.78;;;13.60;99.90;;;;;;4984342;28;20105;-86
2023/05/23 05:44:30;;;;;;;19.95;5.63;;;13.50;99.90;;;;;;4985427;28;20038;-86
2023/05/23 05:46:55;;;;;;;19.45;5.00;;;13.50;99.90;;;;;;4992897;28;20127;-87
2023/05/23 05:49:21;;;;;;;15.73;5.22;;;13.50;99.90;;;;;;5007780;28;20052;-87
2023/05/23 05:51:50;;;;;;;18.38;5.30;;;13.50;99.90;;;;;;4998423;28;20869;-86
2023/05/23 05:54:16;;;;;;;12.77;4.30;;;13.50;99.90;;;;;;4976502;28;20058;-87
2023/05/23 05:56:41;;;;;;;12.48;4.38;;;13.50;99.90;;;;;;4976362;28;20695;-85
2023/05/23 05:59:07;;;;;;;12.27;4.20;;;13.60;99.90;;;;;;4970297;28;20026;-86
2023/05/23 06:01:35;;;;;;;14.95;4.68;;;13.60;99.90;;;;;;4996787;28;20100;-85
2023/05/23 06:04:00;;;;;;;13.77;4.18;;;13.50;99.90;;;;;;4962918;28;20493;-85
2023/05/23 06:06:26;;;;;;;14.32;4.30;;;13.50;99.90;;;;;;4988486;28;20109;-86
2023/05/23 06:08:52;;;;;;;12.52;4.07;;;13.50;99.90;;;;;;4973630;28;20030;-87
2023/05/23 06:11:17;;;;;;;16.35;3.28;;;13.50;99.90;;;;;;4972755;28;20467;-87
2023/05/23 06:13:43;;;;;;;14.52;3.95;;;13.50;99.90;;;;;;4982779;28;20076;-88
2023/05/23 06:16:09;;;;;;;16.20;4.05;;;13.50;99.90;;;;;;5002970;28;20041;-88
2023/05/23 06:18:34;;;;;;;16.05;4.38;;;13.50;99.90;;;;;;4987505;28;20110;-86
2023/05/23 06:21:00;;;;;;;13.02;4.13;;;13.50;99.90;;;;;;4968889;28;20029;-86
2023/05/23 06:23:25;;;;;;;17.10;4.28;;;13.60;99.90;;;;;;4970623;28;20251;-87
2023/05/23 06:25:51;;;;;;;16.58;4.43;;;13.60;99.90;;;;;;4965642;28;20035;-87
2023/05/23 06:28:16;;;;;;;20.45;4.93;;;13.50;99.90;;;;;;4967435;28;20038;-87
2023/05/23 06:30:42;;;;;;;21.70;4.32;;;13.60;99.90;;;;;;4983102;28;20029;-87
2023/05/23 06:33:07;;;;;;;13.30;3.67;;;13.50;99.90;;;;;;4983876;28;20101;-87
2023/05/23 06:35:33;;;;;;;19.23;4.13;;;13.50;99.90;;;;;;4980985;28;20056;-87
2023/05/23 06:37:58;;;;;;;13.90;3.08;;;13.50;99.90;;;;;;4978879;28;20069;-86
2023/05/23 06:40:24;;;;;;;11.23;3.20;;;13.60;99.90;;;;;;5001795;28;20058;-86
2023/05/23 06:42:50;;;;;;;13.95;3.40;;;13.60;99.90;;;;;;4970974;28;20026;-86
2023/05/23 06:45:16;;;;;;;18.67;4.00;;;13.60;99.90;;;;;;4987443;28;20033;-85
2023/05/23 06:47:42;;;;;;;10.13;2.90;;;13.60;99.90;;;;;;4995686;28;20390;-86
2023/05/23 06:50:08;;;;;;;10.82;3.35;;;13.60;99.90;;;;;;4994418;28;20034;-87
2023/05/23 06:52:34;;;;;;;19.10;4.20;;;13.60;99.90;;;;;;4974658;28;20037;-86
2023/05/23 06:54:59;;;;;;;8.65;3.40;;;13.70;99.90;;;;;;4995270;28;20034;-87
2023/05/23 06:57:25;;;;;;;15.65;4.07;;;13.70;99.90;;;;;;4976884;28;20029;-87
2023/05/23 06:59:50;;;;;;;10.77;3.45;;;13.80;99.90;;;;;;4985800;28;20037;-86
2023/05/23 07:02:16;;;;;;;13.98;4.20;;;13.90;99.90;;;;;;4974930;28;20076;-86
2023/05/23 07:04:41;;;;;;;9.70;3.70;;;14.00;99.90;;;;;;4976879;28;20030;-86
2023/05/23 07:07:07;;;;;;;11.18;3.72;;;14.10;99.90;;;;;;4989247;28;20064;-87
2023/05/23 07:09:33;;;;;;;12.15;3.88;;;14.10;99.90;;;;;;4987192;28;20026;-86
2023/05/23 07:11:58;;;;;;;14.77;3.70;;;14.10;99.90;;;;;;4983428;28;20022;-88
2023/05/23 07:14:24;;;;;;;10.43;4.05;;;14.20;99.90;;;;;;4993344;28;20031;-88
2023/05/23 07:16:50;;;;;;;12.65;4.43;;;14.30;99.90;;;;;;4983818;28;20033;-88
2023/05/23 07:19:15;;;;;;;9.30;3.72;;;14.40;99.90;;;;;;4973997;28;20045;-87
2023/05/23 07:21:41;;;;;;;14.75;4.35;;;14.50;99.90;;;;;;4991612;28;20250;-87
2023/05/23 07:24:06;;;;;;;11.35;3.85;;;14.60;99.90;;;;;;4975283;28;20131;-87
2023/05/23 07:26:32;;;;;;;14.88;3.90;;;14.70;99.90;;;;;;4990579;28;20071;-87
2023/05/23 07:28:57;;;;;;;11.60;4.07;;;14.80;99.90;;;;;;4979378;28;20060;-87
2023/05/23 07:31:23;;;;;;;13.38;4.75;;;14.80;99.90;;;;;;4978558;28;20046;-85
2023/05/23 07:33:48;;;;;;;13.80;4.90;;;14.80;99.90;;;;;;4973740;28;20540;-87
2023/05/23 07:36:15;;;;;;;11.82;4.22;;;14.80;99.90;;;;;;4967793;28;20035;-87
2023/05/23 07:38:40;;;;;;;10.77;3.55;;;14.80;99.90;;;;;;4953869;28;20023;-86
2023/05/23 07:41:06;;;;;;;13.23;4.32;;;14.70;99.90;;;;;;4954762;28;20410;-87
2023/05/23 07:43:32;;;;;;;16.08;4.32;;;14.70;99.90;;;;;;4970249;28;20030;-87
2023/05/23 07:45:57;;;;;;;18.35;3.80;;;14.70;99.90;;;;;;4966064;28;20034;-87
2023/05/23 07:48:23;;;;;;;12.93;4.68;;;14.60;99.90;;;;;;4962589;28;20033;-87
2023/05/23 07:50:48;;;;;;;14.30;3.75;;;14.70;99.90;;;;;;4953386;28;20063;-86
2023/05/23 07:53:14;;;;;;;12.50;3.40;;;14.80;99.90;;;;;;4955480;28;20495;-86
2023/05/23 07:55:40;;;;;;;11.60;3.83;;;14.80;99.90;;;;;;4945233;28;20039;-87
2023/05/23 07:58:06;;;;;;;10.00;3.50;;;14.90;99.90;;;;;;4948909;28;20024;-86
2023/05/23 08:00:31;;;;;;;10.27;3.42;;;14.90;99.90;;;;;;4944768;28;20039;-85
2023/05/23 08:02:57;;;;;;;12.98;3.33;;;14.90;99.90;;;;;;4952480;28;20032;-86
2023/05/23 08:05:23;;;;;;;15.27;3.30;;;15.00;99.90;;;;;;4949811;28;20031;-86
2023/05/23 08:07:48;;;;;;;10.27;2.88;;;15.10;99.90;;;;;;4963554;28;20392;-86
2023/05/23 08:10:17;;;;;;;7.63;2.60;;;15.10;99.90;;;;;;4958300;28;20034;-87
2023/05/23 08:12:43;;;;;;;9.43;3.60;;;15.00;99.90;;;;;;4955024;28;20046;-87
2023/05/23 08:15:10;;;;;;;10.98;3.10;;;14.90;99.90;;;;;;4955349;28;20483;-86
2023/05/23 08:17:35;;;;;;;7.25;2.05;;;14.90;99.90;;;;;;4956029;28;20043;-87
2023/05/23 08:20:03;;;;;;;12.25;2.75;;;14.80;99.90;;;;;;4956000;28;20034;-87
2023/05/23 08:22:28;;;;;;;10.35;2.63;;;14.70;99.90;;;;;;4941757;28;20027;-87
2023/05/23 08:24:54;;;;;;;9.38;1.98;;;14.70;99.90;;;;;;4948228;28;20035;-87
2023/05/23 08:27:20;;;;;;;9.55;1.58;;;14.70;99.90;;;;;;4941659;28;20024;-87
2023/05/23 08:29:45;;;;;;;11.57;2.83;;;14.70;99.90;;;;;;4946984;28;20055;-87
2023/05/23 08:32:11;;;;;;;8.02;1.13;;;14.60;99.90;;;;;;4957133;28;20058;-88
2023/05/23 08:34:36;;;;;;;10.48;1.38;;;14.60;99.90;;;;;;4951962;28;20095;-87
2023/05/23 08:37:02;;;;;;;8.07;1.17;;;14.70;99.90;;;;;;4963083;28;20035;-86
2023/05/23 08:39:27;;;;;;;8.82;1.13;;;14.80;99.90;;;;;;4968698;28;20031;-86
2023/05/23 08:41:53;;;;;;;10.80;1.42;;;15.00;99.90;;;;;;4963461;28;20027;-85
2023/05/23 08:44:19;;;;;;;13.25;1.25;;;15.20;99.90;;;;;;4954298;28;20045;-85
2023/05/23 08:46:45;;;;;;;11.05;1.20;;;15.50;99.90;;;;;;4948474;28;20031;-86
2023/05/23 08:49:13;;;;;;;12.25;1.48;;;15.80;99.90;;;;;;4951589;28;20030;-86
2023/05/23 08:51:42;;;;;;;12.05;1.83;;;16.00;99.90;;;;;;4954027;28;20401;-86
2023/05/23 08:54:08;;;;;;;13.07;1.13;;;16.00;99.90;;;;;;4954302;28;20026;-86
2023/05/23 08:56:35;;;;;;;9.00;1.35;;;15.90;99.90;;;;;;4956036;28;20040;-86
2023/05/23 08:59:01;;;;;;;9.68;1.35;;;15.90;99.90;;;;;;4948315;28;20023;-86
2023/05/23 09:01:29;;;;;;;13.05;1.85;;;16.00;99.90;;;;;;4954907;28;20023;-87
2023/05/23 09:03:55;;;;;;;7.90;1.33;;;16.00;99.90;;;;;;4952692;28;20031;-86
2023/05/23 09:06:21;;;;;;;13.57;1.33;;;16.10;99.90;;;;;;4936686;28;20039;-86
2023/05/23 09:08:46;;;;;;;9.35;0.77;;;16.00;99.90;;;;;;4951742;28;20081;-87
2023/05/23 09:11:13;;;;;;;15.82;1.70;;;16.20;99.90;;;;;;4965803;28;20058;-86
2023/05/23 09:13:39;;;;;;;11.85;1.30;;;16.30;99.90;;;;;;4949289;29;20046;-86
2023/05/23 09:16:06;;;;;;;14.68;1.40;;;16.30;99.90;;;;;;4953125;29;20484;-86
2023/05/23 09:18:36;;;;;;;12.55;1.20;;;16.50;99.90;;;;;;4954916;29;20106;-87
2023/05/23 09:21:02;;;;;;;17.60;1.90;;;16.70;99.90;;;;;;4962986;28;20030;-87
2023/05/23 09:23:32;;;;;;;18.13;2.20;;;16.80;99.90;;;;;;4958087;28;20026;-87
2023/05/23 09:26:05;;;;;;;16.23;2.83;;;16.80;99.90;;;;;;4955165;28;20055;-87
2023/05/23 09:28:32;;;;;;;14.65;2.20;;;16.70;99.90;;;;;;4949464;29;20030;-86
2023/05/23 09:31:02;;;;;;;14.63;1.60;;;16.70;99.90;;;;;;4953923;29;20063;-86
2023/05/23 09:33:39;;;;;;;12.73;1.50;;;16.70;99.90;;;;;;4953846;28;20031;-86
2023/05/23 09:36:06;;;;;;;14.43;1.65;;;16.80;99.90;;;;;;4977562;28;20038;-86
2023/05/23 09:38:36;;;;;;;10.90;1.00;;;16.80;99.90;;;;;;4987517;28;20085;-87
2023/05/23 09:41:02;;;;;;;11.90;1.45;;;16.90;99.90;;;;;;4966145;28;20475;-86
2023/05/23 09:43:28;;;;;;;16.17;1.50;;;17.00;99.90;;;;;;4972286;28;20403;-87
2023/05/23 09:45:55;;;;;;;9.07;1.23;;;17.00;99.90;;;;;;4968772;28;20030;-86
2023/05/23 09:48:28;;;;;;;14.05;2.33;;;16.90;99.90;;;;;;4981492;28;20030;-87
2023/05/23 09:50:54;;;;;;;13.80;2.40;;;17.10;99.90;;;;;;4988522;28;20023;-87
2023/05/23 09:53:21;;;;;;;10.88;1.50;;;17.10;99.90;;;;;;4958542;28;20399;-87
2023/05/23 09:55:52;;;;;;;15.23;1.95;;;17.10;99.90;;;;;;4994248;28;20125;-86
2023/05/23 09:58:19;;;;;;;11.40;1.67;;;17.20;99.90;;;;;;4992227;28;20030;-86
2023/05/23 10:00:53;;;;;;;11.48;1.52;;;17.10;99.90;;;;;;4966643;28;20034;-86
2023/05/23 10:03:25;;;;;;;13.70;1.67;;;16.80;99.90;;;;;;4964788;28;20026;-86
2023/05/23 10:06:04;;;;;;;8.73;1.05;;;16.60;99.90;;;;;;4979913;28;20060;-87
2023/05/23 10:08:35;;;;;;;19.23;2.20;;;16.40;99.90;;;;;;4989569;28;20065;-87
2023/05/23 10:11:12;;;;;;;16.85;1.77;;;16.50;99.90;;;;;;5001292;28;20091;-86
2023/05/23 10:13:43;;;;;;;12.00;1.88;;;16.60;99.90;;;;;;4990103;28;20107;-87
2023/05/23 10:16:42;;;;;;;16.08;1.65;;;16.80;99.90;;;;;;4964598;28;20044;-87
2023/05/23 10:19:37;;;;;;;14.15;1.80;;;17.10;99.90;;;;;;4982330;28;20522;-86
2023/05/23 10:22:06;;;;;;;16.73;2.28;;;17.50;99.90;;;;;;4989967;28;20386;-87
2023/05/23 10:24:33;;;;;;;9.35;1.60;;;17.70;99.70;;;;;;4980234;28;20033;-85
2023/05/23 10:26:58;;;;;;;9.82;1.30;;;17.70;98.70;;;;;;4967754;28;20026;-86
2023/05/23 10:29:25;;;;;;;12.38;2.25;;;17.40;98.70;;;;;;4976546;28;20117;-87
2023/05/23 10:31:52;;;;;;;15.10;1.83;;;17.20;98.70;;;;;;4982476;28;20049;-86
2023/05/23 10:34:38;;;;;;;10.57;1.33;;;17.10;99.30;;;;;;4981231;28;20098;-86
2023/05/23 10:37:14;;;;;;;15.63;2.17;;;17.20;99.60;;;;;;4983420;28;20125;-86
2023/05/23 10:39:51;;;;;;;16.25;1.75;;;17.40;99.80;;;;;;4975134;28;20031;-86
2023/05/23 10:42:30;;;;;;;11.85;2.22;;;17.70;98.50;;;;;;4983501;28;20021;-87
2023/05/23 10:45:14;;;;;;;11.38;2.17;;;17.80;98.20;;;;;;4969701;28;20023;-86
2023/05/23 10:47:39;;;;;;;11.23;1.70;;;17.80;97.10;;;;;;4972185;28;20394;-87
2023/05/23 10:50:06;;;;;;;9.95;1.50;;;17.80;97.30;;;;;;4981250;28;20022;-86
2023/05/23 10:52:39;;;;;;;11.75;2.30;;;17.80;97.40;;;;;;4978565;28;20030;-86
2023/05/23 10:55:13;;;;;;;11.52;1.30;;;17.80;96.40;;;;;;4990148;28;20045;-87
2023/05/23 10:57:40;;;;;;;11.68;1.73;;;17.70;96.60;;;;;;4974550;28;20018;-87
2023/05/23 11:00:12;;;;;;;13.20;1.50;;;17.50;96.30;;;;;;4971128;28;20561;-86
2023/05/23 11:02:51;;;;;;;6.72;1.15;;;17.50;97.00;;;;;;4975484;28;20038;-86
2023/05/23 11:05:20;;;;;;;16.80;2.30;;;17.60;96.80;;;;;;4993704;28;20037;-86
2023/05/23 11:07:45;;;;;;;14.77;1.83;;;17.70;97.20;;;;;;4973765;28;20034;-86
2023/05/23 11:10:15;;;;;;;8.40;1.52;;;17.70;96.50;;;;;;4982530;28;20026;-86
2023/05/23 11:12:43;;;;;;;16.65;1.85;;;17.70;96.30;;;;;;4991998;28;20565;-86
2023/05/23 11:15:21;;;;;;;10.20;1.77;;;17.70;96.20;;;;;;4998876;28;20033;-86
2023/05/23 11:17:51;;;;;;;9.77;1.55;;;17.80;95.70;;;;;;4982580;28;20419;-86
2023/05/23 11:20:22;;;;;;;9.23;1.58;;;18.00;95.40;;;;;;4998078;28;20157;-87
2023/05/23 11:23:04;;;;;;;10.70;1.55;;;18.10;94.90;;;;;;4995479;28;20032;-87
2023/05/23 11:25:59;;;;;;;11.63;2.65;;;18.20;94.10;;;;;;4986867;28;20025;-85
2023/05/23 11:28:25;;;;;;;9.95;1.05;;;18.00;93.70;;;;;;4970749;28;20034;-86
2023/05/23 11:30:51;;;;;;;9.90;1.40;;;17.70;94.10;;;;;;4996850;28;20077;-87
2023/05/23 11:33:17;;;;;;;16.33;1.80;;;17.60;94.70;;;;;;4978177;28;20034;-86
2023/05/23 11:35:48;;;;;;;11.15;1.60;;;17.70;95.30;;;;;;4977855;28;20418;-87
2023/05/23 11:38:15;;;;;;;8.07;1.20;;;17.90;94.90;;;;;;4995584;28;20056;-87
2023/05/23 11:40:45;;;;;;;10.65;1.60;;;18.00;94.50;;;;;;4972787;28;20117;-87
2023/05/23 11:43:15;;;;;;;10.85;1.02;;;18.10;93.80;;;;;;4973873;28;20038;-86
2023/05/23 11:45:41;;;;;;;13.63;1.98;;;18.20;94.00;;;;;;4972292;28;20097;-87
2023/05/23 11:48:11;;;;;;;6.28;1.02;;;18.40;93.80;;;;;;4979422;28;20076;-87
2023/05/23 11:50:51;;;;;;;11.10;1.38;;;18.50;93.80;;;;;;4977760;28;20109;-87
2023/05/23 11:53:20;;;;;;;15.00;1.52;;;18.80;93.60;;;;;;4963885;28;20121;-86
2023/05/23 11:56:04;;;;;;;11.38;1.73;;;18.90;92.60;;;;;;4979624;28;20044;-86
2023/05/23 11:58:34;;;;;;;9.10;1.63;;;18.80;92.90;;;;;;4988312;28;20073;-87
2023/05/23 12:01:02;;;;;;;14.13;1.45;;;18.80;92.80;;;;;;4976462;28;20567;-88
2023/05/23 12:03:27;;;;;;;10.85;1.60;;;18.80;92.30;;;;;;4989723;28;20079;-86
2023/05/23 12:05:57;;;;;;;8.65;1.25;;;18.70;92.50;;;;;;4973733;28;20034;-87
2023/05/23 12:08:24;;;;;;;10.60;1.25;;;18.90;92.00;;;;;;4984772;28;20030;-87
2023/05/23 12:10:56;;;;;;;12.30;1.42;;;19.00;91.80;;;;;;4969567;28;20038;-88
2023/05/23 12:13:27;;;;;;;17.15;2.28;;;19.10;91.70;;;;;;4974445;28;20399;-87
2023/05/23 12:15:58;;;;;;;9.32;1.20;;;19.10;90.90;;;;;;4986655;28;20175;-88
2023/05/23 12:18:28;;;;;;;11.20;1.55;;;18.90;90.40;;;;;;4973384;28;20085;-87
2023/05/23 12:20:53;;;;;;;10.13;1.45;;;18.70;90.70;;;;;;4965827;28;20038;-87
2023/05/23 12:23:23;;;;;;;10.80;1.52;;;18.40;90.60;;;;;;4966236;28;20030;-86
2023/05/23 12:25:53;;;;;;;10.70;2.30;;;17.90;90.60;;;;;;4991971;28;20093;-87
2023/05/23 12:28:20;;;;;;;8.52;1.17;;;17.70;91.50;;;;;;4973399;28;20027;-86
2023/05/23 12:30:46;;;;;;;10.27;1.40;;;17.60;92.20;;;;;;4981962;28;20068;-87
2023/05/23 12:33:12;;;;;;;9.60;1.30;;;17.80;92.60;;;;;;4975830;28;20053;-87
2023/05/23 12:35:41;;;;;;;9.07;0.82;;;17.90;92.60;;;;;;4973552;28;20070;-87
2023/05/23 12:38:07;;;;;;;14.98;1.48;;;17.90;91.70;;;;;;4994312;28;20018;-87
2023/05/23 12:40:33;;;;;;;6.97;0.90;;;17.90;92.50;;;;;;4978055;28;20026;-87